sensor_id;sensor_type;location;lat;lon;timestamp;pressure;altitude;pressure_sealevel;temperature;humidity
81937;BME280;71432;56.558;9.036;2023-07-31T00:00:10;100285.84;;;24.03;50.55
81937;BME280;71432;56.558;9.036;2023-07-31T00:02:36;100282.38;;;24.02;50.70
81937;BME280;71432;56.558;9.036;2023-07-31T00:05:01;100284.53;;;23.99;50.48
81937;BME280;71432;56.558;9.036;2023-07-31T00:07:27;100277.25;;;24.01;50.44
81937;BME280;71432;56.558;9.036;2023-07-31T00:09:52;100268.31;;;24.02;50.41
81937;BME280;71432;56.558;9.036;2023-07-31T00:12:19;100270.50;;;23.98;50.49
81937;BME280;71432;56.558;9.036;2023-07-31T00:14:44;100270.31;;;24.00;50.54
81937;BME280;71432;56.558;9.036;2023-07-31T00:17:10;100273.59;;;24.02;50.64
81937;BME280;71432;56.558;9.036;2023-07-31T00:19:35;100268.47;;;24.00;50.63
81937;BME280;71432;56.558;9.036;2023-07-31T00:22:01;100259.41;;;24.03;50.53
81937;BME280;71432;56.558;9.036;2023-07-31T00:24:26;100261.22;;;24.02;50.53
81937;BME280;71432;56.558;9.036;2023-07-31T00:26:51;100250.44;;;24.04;50.55
81937;BME280;71432;56.558;9.036;2023-07-31T00:29:16;100250.97;;;23.99;50.77
81937;BME280;71432;56.558;9.036;2023-07-31T00:31:42;100242.88;;;24.01;50.34
81937;BME280;71432;56.558;9.036;2023-07-31T00:34:07;100244.31;;;24.03;50.82
81937;BME280;71432;56.558;9.036;2023-07-31T00:36:32;100237.41;;;24.02;50.71
81937;BME280;71432;56.558;9.036;2023-07-31T00:38:58;100243.69;;;24.01;50.46
81937;BME280;71432;56.558;9.036;2023-07-31T00:41:23;100238.78;;;23.98;50.54
81937;BME280;71432;56.558;9.036;2023-07-31T00:43:48;100241.88;;;24.02;50.59
81937;BME280;71432;56.558;9.036;2023-07-31T00:46:14;100229.00;;;23.99;50.57
81937;BME280;71432;56.558;9.036;2023-07-31T00:48:39;100219.25;;;23.99;50.72
81937;BME280;71432;56.558;9.036;2023-07-31T00:51:05;100221.56;;;24.02;50.47
81937;BME280;71432;56.558;9.036;2023-07-31T00:53:30;100212.78;;;24.02;50.42
81937;BME280;71432;56.558;9.036;2023-07-31T00:55:56;100204.19;;;24.00;50.76
81937;BME280;71432;56.558;9.036;2023-07-31T00:58:22;100211.31;;;23.99;50.53
81937;BME280;71432;56.558;9.036;2023-07-31T01:00:49;100218.06;;;24.02;50.78
81937;BME280;71432;56.558;9.036;2023-07-31T01:03:15;100206.84;;;24.00;50.68
81937;BME280;71432;56.558;9.036;2023-07-31T01:06:06;100206.69;;;24.01;50.44
81937;BME280;71432;56.558;9.036;2023-07-31T01:08:54;100219.25;;;23.99;50.80
81937;BME280;71432;56.558;9.036;2023-07-31T01:11:30;100217.63;;;23.98;50.47
81937;BME280;71432;56.558;9.036;2023-07-31T01:13:57;100222.91;;;23.98;50.69
81937;BME280;71432;56.558;9.036;2023-07-31T01:16:22;100211.50;;;23.98;50.73
81937;BME280;71432;56.558;9.036;2023-07-31T01:18:48;100206.38;;;23.96;50.86
81937;BME280;71432;56.558;9.036;2023-07-31T01:27:14;100175.50;;;23.97;50.40
81937;BME280;71432;56.558;9.036;2023-07-31T01:29:47;100170.56;;;23.93;50.70
81937;BME280;71432;56.558;9.036;2023-07-31T01:32:14;100170.56;;;23.93;50.59
81937;BME280;71432;56.558;9.036;2023-07-31T01:34:41;100167.94;;;23.93;50.59
81937;BME280;71432;56.558;9.036;2023-07-31T01:37:06;100168.91;;;23.92;50.52
81937;BME280;71432;56.558;9.036;2023-07-31T01:39:32;100161.16;;;23.91;50.35
81937;BME280;71432;56.558;9.036;2023-07-31T01:41:57;100159.16;;;23.93;50.39
81937;BME280;71432;56.558;9.036;2023-07-31T01:44:22;100158.34;;;23.92;50.52
81937;BME280;71432;56.558;9.036;2023-07-31T01:46:48;100160.34;;;23.90;50.43
81937;BME280;71432;56.558;9.036;2023-07-31T01:49:13;100152.22;;;23.92;50.58
81937;BME280;71432;56.558;9.036;2023-07-31T01:51:38;100141.50;;;23.93;50.39
81937;BME280;71432;56.558;9.036;2023-07-31T01:54:04;100141.28;;;23.95;50.29
81937;BME280;71432;56.558;9.036;2023-07-31T01:56:29;100125.81;;;23.92;50.56
81937;BME280;71432;56.558;9.036;2023-07-31T01:58:54;100125.44;;;23.95;50.57
81937;BME280;71432;56.558;9.036;2023-07-31T02:01:20;100118.50;;;23.94;50.23
81937;BME280;71432;56.558;9.036;2023-07-31T02:03:45;100110.75;;;23.92;50.39
81937;BME280;71432;56.558;9.036;2023-07-31T02:06:11;100106.63;;;23.90;50.57
81937;BME280;71432;56.558;9.036;2023-07-31T02:08:36;100105.47;;;23.92;50.30
81937;BME280;71432;56.558;9.036;2023-07-31T02:11:01;100110.56;;;23.94;50.38
81937;BME280;71432;56.558;9.036;2023-07-31T02:13:27;100109.75;;;23.93;50.44
81937;BME280;71432;56.558;9.036;2023-07-31T02:15:52;100102.00;;;23.92;50.15
81937;BME280;71432;56.558;9.036;2023-07-31T02:18:17;100106.47;;;23.91;50.33
81937;BME280;71432;56.558;9.036;2023-07-31T02:20:43;100102.19;;;23.90;50.20
81937;BME280;71432;56.558;9.036;2023-07-31T02:23:11;100098.72;;;23.90;50.15
81937;BME280;71432;56.558;9.036;2023-07-31T02:25:36;100100.34;;;23.91;50.15
81937;BME280;71432;56.558;9.036;2023-07-31T02:28:02;100097.72;;;23.91;50.14
81937;BME280;71432;56.558;9.036;2023-07-31T02:30:27;100095.25;;;23.89;50.15
81937;BME280;71432;56.558;9.036;2023-07-31T02:32:52;100088.78;;;23.92;49.91
81937;BME280;71432;56.558;9.036;2023-07-31T02:35:18;100086.16;;;23.92;50.31
81937;BME280;71432;56.558;9.036;2023-07-31T02:37:43;100072.28;;;23.90;50.35
81937;BME280;71432;56.558;9.036;2023-07-31T02:40:09;100071.28;;;23.91;50.20
81937;BME280;71432;56.558;9.036;2023-07-31T02:42:35;100062.34;;;23.92;50.30
81937;BME280;71432;56.558;9.036;2023-07-31T02:45:00;100066.81;;;23.91;50.52
81937;BME280;71432;56.558;9.036;2023-07-31T02:47:25;100052.94;;;23.89;49.97
81937;BME280;71432;56.558;9.036;2023-07-31T02:49:50;100052.94;;;23.89;50.32
81937;BME280;71432;56.558;9.036;2023-07-31T02:52:16;100053.97;;;23.88;50.36
81937;BME280;71432;56.558;9.036;2023-07-31T02:54:41;100057.44;;;23.89;50.35
81937;BME280;71432;56.558;9.036;2023-07-31T02:57:07;100055.59;;;23.89;50.21
81937;BME280;71432;56.558;9.036;2023-07-31T02:59:32;100054.78;;;23.89;50.11
81937;BME280;71432;56.558;9.036;2023-07-31T03:01:57;100053.78;;;23.90;49.95
81937;BME280;71432;56.558;9.036;2023-07-31T03:04:23;100051.31;;;23.88;50.37
81937;BME280;71432;56.558;9.036;2023-07-31T03:06:48;100054.78;;;23.89;50.45
81937;BME280;71432;56.558;9.036;2023-07-31T03:09:13;100049.84;;;23.86;50.36
81937;BME280;71432;56.558;9.036;2023-07-31T03:11:39;100051.94;;;23.90;50.39
81937;BME280;71432;56.558;9.036;2023-07-31T03:14:04;100055.59;;;23.89;50.18
81937;BME280;71432;56.558;9.036;2023-07-31T03:16:29;100056.78;;;23.87;50.37
81937;BME280;71432;56.558;9.036;2023-07-31T03:18:55;100051.31;;;23.88;50.32
81937;BME280;71432;56.558;9.036;2023-07-31T03:21:20;100048.03;;;23.86;50.35
81937;BME280;71432;56.558;9.036;2023-07-31T03:23:45;100049.84;;;23.86;50.22
81937;BME280;71432;56.558;9.036;2023-07-31T03:26:10;100048.19;;;23.85;50.33
81937;BME280;71432;56.558;9.036;2023-07-31T03:28:36;100042.38;;;23.89;50.20
81937;BME280;71432;56.558;9.036;2023-07-31T03:31:01;100048.03;;;23.86;50.14
81937;BME280;71432;56.558;9.036;2023-07-31T03:33:27;100051.50;;;23.87;50.47
81937;BME280;71432;56.558;9.036;2023-07-31T03:35:53;100051.13;;;23.90;50.18
81937;BME280;71432;56.558;9.036;2023-07-31T03:38:19;100046.03;;;23.88;50.48
81937;BME280;71432;56.558;9.036;2023-07-31T03:40:44;100037.47;;;23.86;50.46
81937;BME280;71432;56.558;9.036;2023-07-31T03:43:10;100048.84;;;23.87;50.50
81937;BME280;71432;56.558;9.036;2023-07-31T03:45:35;100049.84;;;23.86;50.27
81937;BME280;71432;56.558;9.036;2023-07-31T03:48:01;100052.50;;;23.86;50.54
81937;BME280;71432;56.558;9.036;2023-07-31T03:50:26;100047.88;;;23.88;50.41
81937;BME280;71432;56.558;9.036;2023-07-31T03:52:52;100051.13;;;23.90;50.34
81937;BME280;71432;56.558;9.036;2023-07-31T03:55:17;100044.03;;;23.90;50.19
81937;BME280;71432;56.558;9.036;2023-07-31T03:57:43;100042.56;;;23.88;50.35
81937;BME280;71432;56.558;9.036;2023-07-31T04:00:09;100041.75;;;23.87;50.64
81937;BME280;71432;56.558;9.036;2023-07-31T04:02:34;100034.66;;;23.88;50.50
81937;BME280;71432;56.558;9.036;2023-07-31T04:04:59;100032.16;;;23.86;50.41
81937;BME280;71432;56.558;9.036;2023-07-31T04:07:25;100032.00;;;23.88;50.50
81937;BME280;71432;56.558;9.036;2023-07-31T04:09:50;100028.16;;;23.90;50.31
81937;BME280;71432;56.558;9.036;2023-07-31T04:12:15;100024.06;;;23.88;50.26
81937;BME280;71432;56.558;9.036;2023-07-31T04:14:41;100019.78;;;23.87;50.29
81937;BME280;71432;56.558;9.036;2023-07-31T04:17:06;100025.88;;;23.87;50.56
81937;BME280;71432;56.558;9.036;2023-07-31T04:19:31;100024.25;;;23.86;50.33
81937;BME280;71432;56.558;9.036;2023-07-31T04:21:57;100023.25;;;23.87;50.56
81937;BME280;71432;56.558;9.036;2023-07-31T04:24:22;100018.34;;;23.84;50.40
81937;BME280;71432;56.558;9.036;2023-07-31T04:26:52;100024.25;;;23.86;50.46
81937;BME280;71432;56.558;9.036;2023-07-31T04:29:18;100018.78;;;23.88;50.33
81937;BME280;71432;56.558;9.036;2023-07-31T04:31:44;100016.47;;;23.85;50.48
81937;BME280;71432;56.558;9.036;2023-07-31T04:34:09;100013.66;;;23.86;50.39
81937;BME280;71432;56.558;9.036;2023-07-31T04:36:35;100004.91;;;23.86;50.48
81937;BME280;71432;56.558;9.036;2023-07-31T04:39:00;100009.22;;;23.87;50.20
81937;BME280;71432;56.558;9.036;2023-07-31T04:41:26;100008.38;;;23.86;50.33
81937;BME280;71432;56.558;9.036;2023-07-31T04:43:51;100000.63;;;23.85;50.50
81937;BME280;71432;56.558;9.036;2023-07-31T04:46:17;100007.09;;;23.82;50.26
81937;BME280;71432;56.558;9.036;2023-07-31T04:48:42;100003.28;;;23.85;50.19
81937;BME280;71432;56.558;9.036;2023-07-31T04:51:08;100006.13;;;23.83;50.37
81937;BME280;71432;56.558;9.036;2023-07-31T04:53:34;100010.56;;;23.83;50.57
81937;BME280;71432;56.558;9.036;2023-07-31T04:56:00;100002.28;;;23.86;50.21
81937;BME280;71432;56.558;9.036;2023-07-31T04:58:25;100006.13;;;23.83;50.32
81937;BME280;71432;56.558;9.036;2023-07-31T05:00:50;100006.13;;;23.83;50.14
81937;BME280;71432;56.558;9.036;2023-07-31T05:03:16;100000.81;;;23.83;50.44
81937;BME280;71432;56.558;9.036;2023-07-31T05:05:41;100007.09;;;23.82;50.25
81937;BME280;71432;56.558;9.036;2023-07-31T05:08:06;99999.00;;;23.84;50.61
81937;BME280;71432;56.558;9.036;2023-07-31T05:10:32;99998.63;;;23.87;50.35
81937;BME280;71432;56.558;9.036;2023-07-31T05:12:57;100002.09;;;23.87;50.19
81937;BME280;71432;56.558;9.036;2023-07-31T05:15:22;99997.63;;;23.88;50.13
81937;BME280;71432;56.558;9.036;2023-07-31T05:17:47;99997.91;;;23.93;50.28
81937;BME280;71432;56.558;9.036;2023-07-31T05:20:13;99993.88;;;23.97;50.35
81937;BME280;71432;56.558;9.036;2023-07-31T05:22:40;99998.78;;;24.00;50.14
81937;BME280;71432;56.558;9.036;2023-07-31T05:25:05;99988.16;;;23.93;50.10
81937;BME280;71432;56.558;9.036;2023-07-31T05:27:31;99987.13;;;23.94;50.23
81937;BME280;71432;56.558;9.036;2023-07-31T05:29:56;99990.25;;;23.98;50.15
81937;BME280;71432;56.558;9.036;2023-07-31T05:32:21;99982.38;;;24.05;50.15
81937;BME280;71432;56.558;9.036;2023-07-31T05:34:47;99975.44;;;24.04;50.63
81937;BME280;71432;56.558;9.036;2023-07-31T05:37:13;99979.56;;;24.06;50.59
81937;BME280;71432;56.558;9.036;2023-07-31T05:39:39;99971.06;;;24.11;50.64
81937;BME280;71432;56.558;9.036;2023-07-31T05:42:04;99978.34;;;24.23;50.10
81937;BME280;71432;56.558;9.036;2023-07-31T05:44:30;99968.44;;;24.25;50.16
81937;BME280;71432;56.558;9.036;2023-07-31T05:46:55;99975.97;;;24.28;50.46
81937;BME280;71432;56.558;9.036;2023-07-31T05:49:20;99971.81;;;24.41;50.09
81937;BME280;71432;56.558;9.036;2023-07-31T05:51:46;99970.50;;;24.51;49.86
81937;BME280;71432;56.558;9.036;2023-07-31T05:54:11;99965.47;;;24.56;49.70
81937;BME280;71432;56.558;9.036;2023-07-31T05:56:36;99967.31;;;24.56;49.87
81937;BME280;71432;56.558;9.036;2023-07-31T05:59:02;99969.31;;;24.54;49.72
81937;BME280;71432;56.558;9.036;2023-07-31T06:01:28;99971.34;;;24.52;49.99
81937;BME280;71432;56.558;9.036;2023-07-31T06:03:53;99975.16;;;24.49;50.16
81937;BME280;71432;56.558;9.036;2023-07-31T06:06:18;99984.31;;;24.47;50.05
81937;BME280;71432;56.558;9.036;2023-07-31T06:08:44;99978.19;;;24.46;49.99
81937;BME280;71432;56.558;9.036;2023-07-31T06:11:09;99979.53;;;24.57;50.03
81937;BME280;71432;56.558;9.036;2023-07-31T06:13:35;99978.50;;;24.58;49.67
81937;BME280;71432;56.558;9.036;2023-07-31T06:16:00;99979.78;;;24.62;49.79
81937;BME280;71432;56.558;9.036;2023-07-31T06:18:30;99979.16;;;24.60;49.87
81937;BME280;71432;56.558;9.036;2023-07-31T06:20:55;99978.50;;;24.58;50.23
81937;BME280;71432;56.558;9.036;2023-07-31T06:23:20;99985.00;;;24.55;50.29
81937;BME280;71432;56.558;9.036;2023-07-31T06:25:46;99980.00;;;24.67;49.57
81937;BME280;71432;56.558;9.036;2023-07-31T06:28:11;99986.47;;;24.79;49.21
81937;BME280;71432;56.558;9.036;2023-07-31T06:30:37;99983.72;;;24.87;49.12
81937;BME280;71432;56.558;9.036;2023-07-31T06:33:02;99978.03;;;24.90;48.85
81937;BME280;71432;56.558;9.036;2023-07-31T06:35:28;99980.91;;;24.95;48.91
81937;BME280;71432;56.558;9.036;2023-07-31T06:37:53;99980.50;;;24.92;49.03
81937;BME280;71432;56.558;9.036;2023-07-31T06:40:18;99976.59;;;24.88;49.36
81937;BME280;71432;56.558;9.036;2023-07-31T06:42:44;99982.56;;;24.96;48.87
81937;BME280;71432;56.558;9.036;2023-07-31T06:45:10;99988.94;;;25.02;48.76
81937;BME280;71432;56.558;9.036;2023-07-31T06:47:35;99987.53;;;25.06;48.33
81937;BME280;71432;56.558;9.036;2023-07-31T06:50:00;99983.25;;;25.05;48.72
81937;BME280;71432;56.558;9.036;2023-07-31T06:52:26;99993.22;;;25.03;49.17
81937;BME280;71432;56.558;9.036;2023-07-31T06:55:16;99984.06;;;25.05;48.40
81937;BME280;71432;56.558;9.036;2023-07-31T06:57:45;99992.66;;;25.07;48.17
81937;BME280;71432;56.558;9.036;2023-07-31T07:00:11;99992.44;;;25.09;48.45
81937;BME280;71432;56.558;9.036;2023-07-31T07:02:36;99982.66;;;25.09;48.55
81937;BME280;71432;56.558;9.036;2023-07-31T07:05:02;99982.47;;;25.11;49.04
81937;BME280;71432;56.558;9.036;2023-07-31T07:07:27;99984.31;;;25.10;48.56
81937;BME280;71432;56.558;9.036;2023-07-31T07:09:53;99979.16;;;25.02;49.00
81937;BME280;71432;56.558;9.036;2023-07-31T07:12:18;99984.81;;;24.99;49.46
81937;BME280;71432;56.558;9.036;2023-07-31T07:14:43;99979.53;;;24.99;49.17
81937;BME280;71432;56.558;9.036;2023-07-31T07:17:11;99982.66;;;25.09;49.41
81937;BME280;71432;56.558;9.036;2023-07-31T07:19:40;99980.25;;;25.14;49.02
81937;BME280;71432;56.558;9.036;2023-07-31T07:22:05;99983.34;;;25.18;48.81
81937;BME280;71432;56.558;9.036;2023-07-31T07:24:31;99983.66;;;25.08;49.07
81937;BME280;71432;56.558;9.036;2023-07-31T07:26:56;99982.25;;;25.06;49.11
81937;BME280;71432;56.558;9.036;2023-07-31T07:29:21;99983.06;;;25.06;48.75
81937;BME280;71432;56.558;9.036;2023-07-31T07:31:47;99986.13;;;25.10;48.83
81937;BME280;71432;56.558;9.036;2023-07-31T07:34:12;99974.09;;;25.07;48.76
81937;BME280;71432;56.558;9.036;2023-07-31T07:36:38;99974.97;;;25.14;48.43
81937;BME280;71432;56.558;9.036;2023-07-31T07:39:03;99978.00;;;25.11;48.66
81937;BME280;71432;56.558;9.036;2023-07-31T07:41:29;99981.91;;;25.15;48.56
81937;BME280;71432;56.558;9.036;2023-07-31T07:43:54;99975.81;;;25.21;48.70
81937;BME280;71432;56.558;9.036;2023-07-31T07:46:19;99966.50;;;25.26;48.22
81937;BME280;71432;56.558;9.036;2023-07-31T07:48:44;99974.88;;;25.29;48.46
81937;BME280;71432;56.558;9.036;2023-07-31T07:51:10;99975.88;;;25.28;48.35
81937;BME280;71432;56.558;9.036;2023-07-31T07:53:35;99975.81;;;25.21;48.10
81937;BME280;71432;56.558;9.036;2023-07-31T07:56:01;99976.41;;;25.17;48.54
81937;BME280;71432;56.558;9.036;2023-07-31T07:58:26;99984.69;;;25.07;48.87
81937;BME280;71432;56.558;9.036;2023-07-31T08:00:53;99985.88;;;25.05;48.61
81937;BME280;71432;56.558;9.036;2023-07-31T08:03:18;99974.78;;;24.95;48.87
81937;BME280;71432;56.558;9.036;2023-07-31T08:05:44;99976.94;;;25.06;48.63
81937;BME280;71432;56.558;9.036;2023-07-31T08:08:14;99974.56;;;25.17;48.29
81937;BME280;71432;56.558;9.036;2023-07-31T08:10:41;99968.50;;;25.23;48.18
81937;BME280;71432;56.558;9.036;2023-07-31T08:13:07;99971.59;;;25.27;48.47
81937;BME280;71432;56.558;9.036;2023-07-31T08:15:32;99972.97;;;25.16;48.80
81937;BME280;71432;56.558;9.036;2023-07-31T08:17:57;99964.31;;;25.08;49.01
81937;BME280;71432;56.558;9.036;2023-07-31T08:20:23;99956.94;;;25.03;48.71
81937;BME280;71432;56.558;9.036;2023-07-31T08:22:48;99948.81;;;25.05;48.63
81937;BME280;71432;56.558;9.036;2023-07-31T08:25:14;99944.00;;;25.15;48.30
81937;BME280;71432;56.558;9.036;2023-07-31T08:27:43;99941.94;;;25.10;48.78
81937;BME280;71432;56.558;9.036;2023-07-31T08:30:09;99953.28;;;25.04;48.74
81937;BME280;71432;56.558;9.036;2023-07-31T08:32:34;99958.00;;;25.09;49.07
81937;BME280;71432;56.558;9.036;2023-07-31T08:34:59;99953.53;;;25.09;48.67
81937;BME280;71432;56.558;9.036;2023-07-31T08:37:25;99954.16;;;25.11;48.65
81937;BME280;71432;56.558;9.036;2023-07-31T08:39:50;99962.72;;;25.13;48.56
81937;BME280;71432;56.558;9.036;2023-07-31T08:42:16;99963.13;;;25.10;48.74
81937;BME280;71432;56.558;9.036;2023-07-31T08:44:42;99966.94;;;25.08;48.60
81937;BME280;71432;56.558;9.036;2023-07-31T08:47:09;99963.88;;;25.04;48.69
81937;BME280;71432;56.558;9.036;2023-07-31T08:49:34;99963.69;;;25.06;48.44
81937;BME280;71432;56.558;9.036;2023-07-31T08:52:00;99966.25;;;24.93;48.53
81937;BME280;71432;56.558;9.036;2023-07-31T08:54:26;99971.47;;;24.86;48.86
81937;BME280;71432;56.558;9.036;2023-07-31T08:56:56;99971.28;;;24.88;49.19
81937;BME280;71432;56.558;9.036;2023-07-31T08:59:23;99974.38;;;24.91;49.15
81937;BME280;71432;56.558;9.036;2023-07-31T09:01:50;99972.53;;;24.92;48.74
81937;BME280;71432;56.558;9.036;2023-07-31T09:04:19;99975.00;;;24.93;48.53
81937;BME280;71432;56.558;9.036;2023-07-31T09:06:45;99979.09;;;24.96;48.43
81937;BME280;71432;56.558;9.036;2023-07-31T09:09:12;99983.03;;;24.85;48.93
81937;BME280;71432;56.558;9.036;2023-07-31T09:11:37;99980.88;;;24.89;48.40
81937;BME280;71432;56.558;9.036;2023-07-31T09:14:03;99986.78;;;24.91;48.55
81937;BME280;71432;56.558;9.036;2023-07-31T09:16:33;99985.34;;;24.88;48.84
81937;BME280;71432;56.558;9.036;2023-07-31T09:18:59;99989.44;;;24.91;48.67
81937;BME280;71432;56.558;9.036;2023-07-31T09:21:27;99986.44;;;24.94;48.48
81937;BME280;71432;56.558;9.036;2023-07-31T09:23:53;99990.31;;;24.98;48.53
81937;BME280;71432;56.558;9.036;2023-07-31T09:26:32;99988.50;;;24.98;48.32
81937;BME280;71432;56.558;9.036;2023-07-31T09:29:04;99988.72;;;25.03;48.51
81937;BME280;71432;56.558;9.036;2023-07-31T09:31:39;99989.34;;;25.05;48.26
81937;BME280;71432;56.558;9.036;2023-07-31T09:34:04;99980.34;;;25.00;48.52
81937;BME280;71432;56.558;9.036;2023-07-31T09:36:30;99980.16;;;25.01;48.38
81937;BME280;71432;56.558;9.036;2023-07-31T09:39:02;99988.09;;;25.01;48.66
81937;BME280;71432;56.558;9.036;2023-07-31T09:41:29;99990.31;;;24.98;48.57
81937;BME280;71432;56.558;9.036;2023-07-31T09:43:54;99982.13;;;24.93;48.70
81937;BME280;71432;56.558;9.036;2023-07-31T09:46:20;99982.88;;;24.87;48.36
81937;BME280;71432;56.558;9.036;2023-07-31T09:48:46;99981.16;;;24.79;48.82
81937;BME280;71432;56.558;9.036;2023-07-31T09:51:12;99992.38;;;24.81;48.60
81937;BME280;71432;56.558;9.036;2023-07-31T09:53:37;99994.00;;;24.82;48.83
81937;BME280;71432;56.558;9.036;2023-07-31T09:56:03;99991.94;;;24.77;48.85
81937;BME280;71432;56.558;9.036;2023-07-31T09:58:29;99988.72;;;24.82;48.92
81937;BME280;71432;56.558;9.036;2023-07-31T10:00:57;99982.41;;;24.83;48.56
81937;BME280;71432;56.558;9.036;2023-07-31T10:03:24;99980.38;;;24.85;48.65
81937;BME280;71432;56.558;9.036;2023-07-31T10:05:50;99985.69;;;24.85;48.62
81937;BME280;71432;56.558;9.036;2023-07-31T10:08:18;99985.34;;;24.88;48.41
81937;BME280;71432;56.558;9.036;2023-07-31T10:10:45;99988.81;;;24.89;48.02
81937;BME280;71432;56.558;9.036;2023-07-31T10:13:12;99993.72;;;24.70;47.59
81937;BME280;71432;56.558;9.036;2023-07-31T10:15:38;99992.50;;;24.52;47.55
81937;BME280;71432;56.558;9.036;2023-07-31T10:18:05;99996.06;;;24.44;47.45
81937;BME280;71432;56.558;9.036;2023-07-31T10:20:31;99990.59;;;24.46;47.96
81937;BME280;71432;56.558;9.036;2023-07-31T10:22:57;99991.00;;;24.43;47.28
81937;BME280;71432;56.558;9.036;2023-07-31T10:25:23;99986.00;;;24.33;47.70
81937;BME280;71432;56.558;9.036;2023-07-31T10:27:50;99993.75;;;24.34;47.14
81937;BME280;71432;56.558;9.036;2023-07-31T10:30:20;99998.09;;;24.42;47.36
81937;BME280;71432;56.558;9.036;2023-07-31T10:32:46;100004.22;;;24.43;47.64
81937;BME280;71432;56.558;9.036;2023-07-31T10:35:14;99998.50;;;24.39;47.51
81937;BME280;71432;56.558;9.036;2023-07-31T10:37:41;100001.88;;;24.33;47.10
81937;BME280;71432;56.558;9.036;2023-07-31T10:40:27;100003.00;;;24.24;47.27
81937;BME280;71432;56.558;9.036;2023-07-31T10:42:56;99998.25;;;24.19;47.12
81937;BME280;71432;56.558;9.036;2023-07-31T10:45:42;99996.69;;;24.10;46.94
81937;BME280;71432;56.558;9.036;2023-07-31T10:48:15;99998.97;;;24.13;47.22
81937;BME280;71432;56.558;9.036;2023-07-31T10:50:57;99996.50;;;24.12;47.00
81937;BME280;71432;56.558;9.036;2023-07-31T10:53:32;99994.50;;;23.99;47.46
81937;BME280;71432;56.558;9.036;2023-07-31T10:56:05;99997.16;;;23.99;47.17
81937;BME280;71432;56.558;9.036;2023-07-31T10:58:31;99998.09;;;23.91;47.18
81937;BME280;71432;56.558;9.036;2023-07-31T11:01:01;99998.47;;;23.88;47.10
81937;BME280;71432;56.558;9.036;2023-07-31T11:03:46;99996.44;;;23.90;47.33
81937;BME280;71432;56.558;9.036;2023-07-31T11:06:12;99987.50;;;23.91;46.95
81937;BME280;71432;56.558;9.036;2023-07-31T11:08:48;99997.34;;;23.98;46.95
81937;BME280;71432;56.558;9.036;2023-07-31T11:11:15;99986.13;;;23.96;46.98
81937;BME280;71432;56.558;9.036;2023-07-31T11:13:46;99993.69;;;23.99;46.75
81937;BME280;71432;56.558;9.036;2023-07-31T11:16:15;100007.28;;;23.96;46.74
81937;BME280;71432;56.558;9.036;2023-07-31T11:18:45;100007.66;;;24.07;46.75
81937;BME280;71432;56.558;9.036;2023-07-31T11:21:15;100004.03;;;23.93;46.92
81937;BME280;71432;56.558;9.036;2023-07-31T11:23:41;100001.88;;;24.04;46.32
81937;BME280;71432;56.558;9.036;2023-07-31T11:26:07;99994.88;;;23.96;46.26
81937;BME280;71432;56.558;9.036;2023-07-31T11:28:33;99998.63;;;24.02;45.84
81937;BME280;71432;56.558;9.036;2023-07-31T11:30:59;99998.78;;;24.00;46.09
81937;BME280;71432;56.558;9.036;2023-07-31T11:33:25;100004.72;;;24.02;46.21
81937;BME280;71432;56.558;9.036;2023-07-31T11:35:50;100008.47;;;23.93;45.93
81937;BME280;71432;56.558;9.036;2023-07-31T11:38:30;100006.84;;;23.92;45.89
81937;BME280;71432;56.558;9.036;2023-07-31T11:40:58;100002.91;;;23.88;45.76
81937;BME280;71432;56.558;9.036;2023-07-31T11:43:24;99999.91;;;23.91;45.81
81937;BME280;71432;56.558;9.036;2023-07-31T11:45:58;99996.91;;;23.79;45.78
81937;BME280;71432;56.558;9.036;2023-07-31T11:48:31;99990.25;;;23.83;46.38
81937;BME280;71432;56.558;9.036;2023-07-31T11:51:00;99992.53;;;23.86;46.51
81937;BME280;71432;56.558;9.036;2023-07-31T11:53:35;99985.41;;;23.87;46.53
81937;BME280;71432;56.558;9.036;2023-07-31T11:56:02;99987.50;;;23.91;46.07
81937;BME280;71432;56.558;9.036;2023-07-31T11:58:31;99996.00;;;23.87;45.85
81937;BME280;71432;56.558;9.036;2023-07-31T12:00:57;99990.88;;;23.85;45.73
81937;BME280;71432;56.558;9.036;2023-07-31T12:03:23;99988.88;;;23.87;45.60
81937;BME280;71432;56.558;9.036;2023-07-31T12:05:48;99990.81;;;23.79;45.51
81937;BME280;71432;56.558;9.036;2023-07-31T12:08:14;99986.69;;;23.76;45.39
81937;BME280;71432;56.558;9.036;2023-07-31T12:10:40;99990.59;;;23.80;45.13
81937;BME280;71432;56.558;9.036;2023-07-31T12:13:23;99986.97;;;23.81;45.52
81937;BME280;71432;56.558;9.036;2023-07-31T12:15:54;99987.78;;;23.82;45.49
81937;BME280;71432;56.558;9.036;2023-07-31T12:18:21;99989.34;;;23.76;45.55
81937;BME280;71432;56.558;9.036;2023-07-31T12:20:49;99983.97;;;23.70;45.36
81937;BME280;71432;56.558;9.036;2023-07-31T12:23:22;99987.06;;;23.73;45.47
81937;BME280;71432;56.558;9.036;2023-07-31T12:26:13;99995.00;;;23.73;45.31
81937;BME280;71432;56.558;9.036;2023-07-31T12:28:46;99989.53;;;23.60;45.51
81937;BME280;71432;56.558;9.036;2023-07-31T12:31:17;99993.72;;;23.69;45.22
81937;BME280;71432;56.558;9.036;2023-07-31T12:33:44;99996.38;;;23.69;45.16
81937;BME280;71432;56.558;9.036;2023-07-31T12:36:13;99993.34;;;23.72;45.29
81937;BME280;71432;56.558;9.036;2023-07-31T12:38:39;99994.44;;;23.63;45.28
81937;BME280;71432;56.558;9.036;2023-07-31T12:41:04;99998.91;;;23.63;45.74
81937;BME280;71432;56.558;9.036;2023-07-31T12:43:32;99996.47;;;23.61;45.24
81937;BME280;71432;56.558;9.036;2023-07-31T12:45:57;99990.69;;;23.58;45.61
81937;BME280;71432;56.558;9.036;2023-07-31T12:48:23;99989.97;;;23.64;45.65
81937;BME280;71432;56.558;9.036;2023-07-31T12:50:48;99993.63;;;23.63;45.85
81937;BME280;71432;56.558;9.036;2023-07-31T12:53:15;99995.09;;;23.65;45.50
81937;BME280;71432;56.558;9.036;2023-07-31T12:55:40;99987.06;;;23.59;44.79
81937;BME280;71432;56.558;9.036;2023-07-31T12:58:06;99989.25;;;23.55;45.53